createdAt,value
2022-08-28T00:04:13.875Z,95583.00
2022-08-28T00:09:42.335Z,95585.00
2022-08-28T00:15:16.943Z,95584.00
2022-08-28T00:20:46.507Z,95576.00
2022-08-28T00:26:34.898Z,95579.00
2022-08-28T00:32:03.490Z,95576.00
2022-08-28T00:37:31.335Z,95574.00
2022-08-28T00:43:01.484Z,95574.00
2022-08-28T00:48:30.059Z,95576.00
2022-08-28T00:53:59.706Z,95581.00
2022-08-28T00:59:28.629Z,95577.00
2022-08-28T01:04:56.526Z,95577.00
2022-08-28T01:10:28.590Z,95574.00
2022-08-28T01:16:01.458Z,95566.00
2022-08-28T01:22:22.086Z,95565.00
2022-08-28T01:27:50.090Z,95572.00
2022-08-28T01:33:19.669Z,95561.00
2022-08-28T01:39:13.392Z,95562.00
2022-08-28T01:44:41.346Z,95558.00
2022-08-28T01:50:12.112Z,95571.00
2022-08-28T01:55:40.755Z,95561.00
2022-08-28T02:01:18.261Z,95557.00
2022-08-28T02:06:46.189Z,95553.00
2022-08-28T02:12:14.174Z,95555.00
2022-08-28T02:17:42.077Z,95553.00
2022-08-28T02:23:10.995Z,95558.00
2022-08-28T02:28:39.284Z,95558.00
2022-08-28T02:34:07.617Z,95557.00
2022-08-28T02:39:35.777Z,95561.00
2022-08-28T02:45:04.358Z,95553.00
2022-08-28T02:50:32.305Z,95550.00
2022-08-28T02:56:00.954Z,95550.00
2022-08-28T03:01:29.040Z,95559.00
2022-08-28T03:06:57.969Z,95555.00
2022-08-28T03:12:25.958Z,95557.00
2022-08-28T03:17:54.198Z,95560.00
2022-08-28T03:23:26.333Z,95562.00
2022-08-28T03:28:55.994Z,95555.00
2022-08-28T03:34:24.557Z,95561.00
2022-08-28T03:39:52.973Z,95555.00
2022-08-28T03:45:21.499Z,95562.00
2022-08-28T03:50:49.340Z,95564.00
2022-08-28T03:56:24.130Z,95562.00
2022-08-28T04:01:52.388Z,95573.00
2022-08-28T04:07:21.046Z,95573.00
2022-08-28T04:12:48.989Z,95570.00
2022-08-28T04:18:16.816Z,95577.00
2022-08-28T04:23:46.486Z,95569.00
2022-08-28T04:29:16.032Z,95578.00
2022-08-28T04:34:43.886Z,95590.00
2022-08-28T04:40:13.357Z,95578.00
2022-08-28T04:45:44.184Z,95578.00
2022-08-28T04:51:15.175Z,95573.00
2022-08-28T04:56:43.485Z,95579.00
2022-08-28T05:02:11.663Z,95579.00
2022-08-28T05:07:39.511Z,95589.00
2022-08-28T05:13:12.192Z,95591.00
2022-08-28T05:18:40.252Z,95594.00
2022-08-28T05:24:10.231Z,95599.00
2022-08-28T05:29:38.185Z,95604.00
2022-08-28T05:35:06.544Z,95609.00
2022-08-28T05:40:35.087Z,95609.00
2022-08-28T05:46:11.132Z,95610.00
2022-08-28T05:51:42.577Z,95613.00
2022-08-28T05:57:10.459Z,95616.00
2022-08-28T06:02:39.389Z,95616.00
2022-08-28T06:08:08.333Z,95619.00
2022-08-28T06:13:36.775Z,95628.00
2022-08-28T06:19:05.812Z,95625.00
2022-08-28T06:24:34.499Z,95628.00
2022-08-28T06:30:04.065Z,95628.00
2022-08-28T06:35:32.783Z,95627.00
2022-08-28T06:41:01.061Z,95629.00
2022-08-28T06:46:30.556Z,95636.00
2022-08-28T06:51:58.530Z,95636.00
2022-08-28T06:57:26.653Z,95642.00
2022-08-28T07:02:54.513Z,95647.00
2022-08-28T07:08:22.401Z,95642.00
2022-08-28T07:13:50.589Z,95652.00
2022-08-28T07:19:18.474Z,95654.00
2022-08-28T07:24:46.384Z,95659.00
2022-08-28T07:30:14.694Z,95658.00
2022-08-28T07:35:50.639Z,95666.00
2022-08-28T07:41:25.740Z,95667.00
2022-08-28T07:46:59.414Z,95666.00
2022-08-28T07:52:29.472Z,95669.00
2022-08-28T07:57:58.037Z,95679.00
2022-08-28T08:03:26.190Z,95683.00
2022-08-28T08:08:54.945Z,95689.00
2022-08-28T08:14:25.849Z,95692.00
2022-08-28T08:19:55.093Z,95699.00
2022-08-28T08:25:25.396Z,95704.00
2022-08-28T08:31:20.687Z,95697.00
2022-08-28T08:36:48.635Z,95703.00
2022-08-28T08:42:32.386Z,95706.00
2022-08-28T08:48:01.995Z,95715.00
2022-08-28T08:53:59.621Z,95716.00
2022-08-28T08:59:32.213Z,95726.00
2022-08-28T09:05:12.539Z,95731.00
2022-08-28T09:10:48.937Z,95742.00
2022-08-28T09:16:32.957Z,95736.00
2022-08-28T09:22:01.639Z,95738.00
2022-08-28T09:27:36.847Z,95748.00
2022-08-28T09:33:07.780Z,95740.00
2022-08-28T09:38:36.989Z,95747.00
2022-08-28T09:44:04.972Z,95755.00
2022-08-28T09:49:33.032Z,95758.00
2022-08-28T09:55:01.060Z,95757.00
2022-08-28T10:00:35.741Z,95768.00
2022-08-28T10:06:26.606Z,95766.00
2022-08-28T10:12:44.236Z,95775.00
2022-08-28T10:18:38.491Z,95775.00
2022-08-28T10:24:32.769Z,95771.00
2022-08-28T10:30:15.579Z,95768.00
2022-08-28T10:36:07.623Z,95780.00
2022-08-28T10:42:03.189Z,95785.00
2022-08-28T10:47:35.362Z,95787.00
2022-08-28T10:53:10.808Z,95782.00
2022-08-28T10:58:41.076Z,95779.00
2022-08-28T11:04:25.434Z,95786.00
2022-08-28T11:10:36.993Z,95785.00
2022-08-28T11:16:22.607Z,95783.00
2022-08-28T11:22:16.330Z,95777.00
2022-08-28T11:28:24.000Z,95782.00
2022-08-28T11:33:56.486Z,95786.00
2022-08-28T11:39:24.650Z,95780.00
2022-08-28T11:44:52.657Z,95789.00
2022-08-28T11:50:29.768Z,95791.00
2022-08-28T11:56:09.703Z,95795.00
2022-08-28T12:01:41.136Z,95791.00
2022-08-28T12:07:16.697Z,95789.00
2022-08-28T12:12:47.953Z,95793.00
2022-08-28T12:18:38.663Z,95794.00
2022-08-28T12:24:22.425Z,95786.00
2022-08-28T12:30:00.623Z,95787.00
2022-08-28T12:35:30.064Z,95787.00
2022-08-28T12:40:58.604Z,95789.00
2022-08-28T12:46:32.854Z,95792.00
2022-08-28T12:52:16.895Z,95795.00
2022-08-28T12:57:47.518Z,95801.00
2022-08-28T13:03:15.515Z,95800.00
2022-08-28T13:08:43.537Z,95797.00
2022-08-28T13:14:12.430Z,95797.00
2022-08-28T13:19:41.559Z,95794.00
2022-08-28T13:25:10.212Z,95788.00
2022-08-28T13:30:44.232Z,95786.00
2022-08-28T13:36:25.978Z,95788.00
2022-08-28T13:42:20.213Z,95789.00
2022-08-28T13:47:48.468Z,95785.00
2022-08-28T13:53:19.870Z,95777.00
2022-08-28T13:58:57.212Z,95781.00
2022-08-28T14:04:32.345Z,95782.00
2022-08-28T14:10:00.295Z,95789.00
2022-08-28T14:15:28.563Z,95785.00
2022-08-28T14:20:56.587Z,95791.00
2022-08-28T14:26:24.519Z,95788.00
2022-08-28T14:31:53.459Z,95782.00
2022-08-28T14:37:21.805Z,95761.00
2022-08-28T14:42:51.197Z,95790.00
2022-08-28T14:48:19.531Z,95788.00
2022-08-28T14:53:47.454Z,95773.00
2022-08-28T14:59:24.501Z,95787.00
2022-08-28T15:04:52.676Z,95788.00
2022-08-28T15:10:20.799Z,95790.00
2022-08-28T15:15:49.890Z,95795.00
2022-08-28T15:21:38.304Z,95802.00
2022-08-28T15:27:07.177Z,95809.00
2022-08-28T15:32:35.160Z,95804.00
2022-08-28T15:38:04.562Z,95799.00
2022-08-28T15:43:32.475Z,95785.00
2022-08-28T15:49:07.793Z,95782.00
2022-08-28T15:54:37.727Z,95779.00
2022-08-28T16:00:10.372Z,95775.00
2022-08-28T16:05:40.625Z,95777.00
2022-08-28T16:11:09.724Z,95783.00
2022-08-28T16:16:37.694Z,95773.00
2022-08-28T16:22:12.337Z,95773.00
2022-08-28T16:27:41.021Z,95774.00
2022-08-28T16:33:10.859Z,95770.00
2022-08-28T16:38:40.593Z,95764.00
2022-08-28T16:44:08.578Z,95762.00
2022-08-28T16:49:36.489Z,95772.00
2022-08-28T16:55:06.993Z,95779.00
2022-08-28T17:00:35.058Z,95782.00
2022-08-28T17:06:27.998Z,95783.00
2022-08-28T17:11:57.370Z,95785.00
2022-08-28T17:17:28.838Z,95786.00
2022-08-28T17:22:59.029Z,95790.00
2022-08-28T17:28:26.983Z,95793.00
2022-08-28T17:33:54.941Z,95797.00
2022-08-28T17:39:23.926Z,95800.00
2022-08-28T17:44:52.045Z,95808.00
2022-08-28T17:50:23.341Z,95809.00
2022-08-28T17:55:51.288Z,95820.00
2022-08-28T18:01:28.476Z,95820.00
2022-08-28T18:06:56.434Z,95827.00
2022-08-28T18:12:24.542Z,95825.00
2022-08-28T18:17:52.585Z,95825.00
2022-08-28T18:23:20.476Z,95830.00
2022-08-28T18:28:49.076Z,95825.00
2022-08-28T18:34:17.026Z,95846.00
2022-08-28T18:39:44.975Z,95853.00
2022-08-28T18:45:13.524Z,95854.00
2022-08-28T18:50:46.139Z,95856.00
2022-08-28T18:56:18.702Z,95870.00
2022-08-28T19:01:48.637Z,95869.00
2022-08-28T19:07:19.771Z,95873.00
2022-08-28T19:12:47.702Z,95875.00
2022-08-28T19:18:17.454Z,95882.00
2022-08-28T19:23:49.341Z,95881.00
2022-08-28T19:29:24.289Z,95880.00
2022-08-28T19:34:52.467Z,95881.00
2022-08-28T19:40:21.214Z,95884.00
2022-08-28T19:45:49.580Z,95884.00
2022-08-28T19:51:22.841Z,95890.00
2022-08-28T19:56:51.823Z,95893.00
2022-08-28T20:02:20.248Z,95898.00
2022-08-28T20:07:48.541Z,95902.00
2022-08-28T20:13:17.674Z,95911.00
2022-08-28T20:18:45.770Z,95902.00
2022-08-28T20:24:22.229Z,95908.00
2022-08-28T20:29:50.276Z,95911.00
2022-08-28T20:35:22.144Z,95908.00
2022-08-28T20:40:52.547Z,95899.00
2022-08-28T20:46:23.780Z,95898.00
2022-08-28T20:52:01.033Z,95894.00
2022-08-28T20:57:29.114Z,95898.00
2022-08-28T21:02:57.275Z,95902.00
2022-08-28T21:08:26.187Z,95902.00
2022-08-28T21:13:55.104Z,95904.00
2022-08-28T21:19:23.449Z,95905.00
2022-08-28T21:24:51.960Z,95906.00
2022-08-28T21:30:22.088Z,95905.00
2022-08-28T21:35:50.552Z,95910.00
2022-08-28T21:41:19.134Z,95916.00
2022-08-28T21:46:50.202Z,95920.00
2022-08-28T21:52:19.833Z,95913.00
2022-08-28T21:57:48.138Z,95920.00
2022-08-28T22:03:17.041Z,95931.00
2022-08-28T22:08:48.323Z,95928.00
2022-08-28T22:14:16.625Z,95918.00
2022-08-28T22:19:46.667Z,95926.00
2022-08-28T22:25:15.115Z,95926.00
2022-08-28T22:30:43.983Z,95929.00
2022-08-28T22:36:13.155Z,95916.00
2022-08-28T22:41:41.690Z,95934.00
2022-08-28T22:47:09.540Z,95923.00
2022-08-28T22:52:38.179Z,95921.00
2022-08-28T22:58:06.407Z,95915.00
2022-08-28T23:03:34.928Z,95929.00
2022-08-28T23:09:02.912Z,95918.00
2022-08-28T23:14:31.058Z,95924.00
2022-08-28T23:19:59.228Z,95924.00
2022-08-28T23:25:27.488Z,95922.00
2022-08-28T23:30:55.397Z,95919.00
2022-08-28T23:36:23.313Z,95922.00
2022-08-28T23:41:52.965Z,95915.00
2022-08-28T23:47:20.836Z,95903.00
2022-08-28T23:52:49.859Z,95909.00
2022-08-28T23:58:20.695Z,95909.00
